createdAt,value
2023-04-23T00:04:53.136Z,93546.16
2023-04-23T00:09:58.290Z,93539.88
2023-04-23T00:15:02.110Z,93538.78
2023-04-23T00:20:06.655Z,93532.97
2023-04-23T00:25:11.182Z,93535.28
2023-04-23T00:30:14.733Z,93537.50
2023-04-23T00:35:18.959Z,93541.44
2023-04-23T00:40:23.847Z,93538.66
2023-04-23T00:45:27.321Z,93524.56
2023-04-23T00:50:31.003Z,93543.31
2023-04-23T00:55:36.459Z,93539.41
2023-04-23T01:00:46.693Z,93541.69
2023-04-23T01:05:51.016Z,93540.88
2023-04-23T01:10:56.566Z,93543.47
2023-04-23T01:15:59.834Z,93545.53
2023-04-23T01:21:06.547Z,93544.41
2023-04-23T01:26:11.028Z,93547.16
2023-04-23T01:31:14.965Z,93543.44
2023-04-23T01:36:20.588Z,93549.72
2023-04-23T01:41:24.201Z,93539.28
2023-04-23T01:46:29.183Z,93539.59
2023-04-23T01:51:32.348Z,93544.59
2023-04-23T01:56:36.661Z,93537.28
2023-04-23T02:01:45.823Z,93535.63
2023-04-23T02:06:51.965Z,93529.31
2023-04-23T02:11:55.575Z,93526.88
2023-04-23T02:16:58.693Z,93526.88
2023-04-23T02:22:02.175Z,93530.66
2023-04-23T02:27:06.015Z,93529.03
2023-04-23T02:32:09.855Z,93522.69
2023-04-23T02:37:13.614Z,93536.91
2023-04-23T02:42:16.921Z,93533.66
2023-04-23T02:47:20.238Z,93532.53
2023-04-23T02:52:24.182Z,93527.72
2023-04-23T02:57:27.330Z,93526.03
2023-04-23T03:02:31.012Z,93522.94
2023-04-23T03:07:34.763Z,93521.84
2023-04-23T03:12:38.481Z,93521.81
2023-04-23T03:17:42.843Z,93517.88
2023-04-23T03:22:47.303Z,93481.16
2023-04-23T03:27:51.512Z,93524.88
2023-04-23T03:32:58.775Z,93524.44
2023-04-23T03:38:03.024Z,93515.44
2023-04-23T03:43:06.803Z,93519.03
2023-04-23T03:48:30.506Z,93526.00
2023-04-23T03:53:36.538Z,93485.22
2023-04-23T03:58:58.708Z,93528.81
2023-04-23T04:04:03.594Z,93524.75
2023-04-23T04:09:09.111Z,93515.16
2023-04-23T04:14:14.145Z,93531.16
2023-04-23T04:19:17.464Z,93529.00
2023-04-23T04:24:23.770Z,93525.00
2023-04-23T04:29:28.909Z,93532.09
2023-04-23T04:34:32.971Z,93537.03
2023-04-23T04:39:36.280Z,93541.94
2023-04-23T04:44:40.680Z,93503.84
2023-04-23T04:49:43.832Z,93532.13
2023-04-23T04:54:47.367Z,93540.00
2023-04-23T04:59:50.909Z,93547.97
2023-04-23T05:04:54.363Z,93556.50
2023-04-23T05:09:58.381Z,93564.00
2023-04-23T05:15:01.848Z,93554.56
2023-04-23T05:20:06.531Z,93562.22
2023-04-23T05:25:14.874Z,93561.31
2023-04-23T05:30:18.945Z,93566.72
2023-04-23T05:35:22.197Z,93568.66
2023-04-23T05:40:28.241Z,93563.09
2023-04-23T05:45:31.713Z,93568.91
2023-04-23T05:50:36.030Z,93570.28
2023-04-23T05:55:39.878Z,93566.72
2023-04-23T06:00:43.911Z,93569.91
2023-04-23T06:05:47.412Z,93580.53
2023-04-23T06:10:50.691Z,93559.94
2023-04-23T06:15:53.920Z,93573.97
2023-04-23T06:20:58.323Z,93580.16
2023-04-23T06:26:01.401Z,93575.63
2023-04-23T06:31:05.988Z,93572.88
2023-04-23T06:36:12.594Z,93582.69
2023-04-23T06:41:16.527Z,93578.47
2023-04-23T06:46:19.644Z,93544.47
2023-04-23T06:51:27.305Z,93577.72
2023-04-23T06:56:30.838Z,93574.28
2023-04-23T07:01:35.609Z,93577.94
2023-04-23T07:06:39.202Z,93587.81
2023-04-23T07:11:43.075Z,93582.44
2023-04-23T07:16:47.005Z,93597.34
2023-04-23T07:21:50.147Z,93590.28
2023-04-23T07:26:53.361Z,93601.94
2023-04-23T07:31:56.885Z,93611.28
2023-04-23T07:37:00.227Z,93602.16
2023-04-23T07:42:03.918Z,93609.16
2023-04-23T07:47:08.114Z,93612.63
2023-04-23T07:52:12.097Z,93613.88
2023-04-23T07:57:15.313Z,93619.09
2023-04-23T08:02:23.955Z,93615.00
2023-04-23T08:07:27.707Z,93619.75
2023-04-23T08:12:31.603Z,93619.44
2023-04-23T08:17:35.837Z,93618.66
2023-04-23T08:22:39.850Z,93633.03
2023-04-23T08:27:43.068Z,93623.31
2023-04-23T08:32:55.691Z,93635.81
2023-04-23T08:37:58.863Z,93634.22
2023-04-23T08:43:03.693Z,93623.78
2023-04-23T08:48:07.228Z,93626.69
2023-04-23T08:53:11.148Z,93629.81
2023-04-23T08:58:15.251Z,93628.72
2023-04-23T09:03:21.141Z,93629.94
2023-04-23T09:08:25.271Z,93635.56
2023-04-23T09:13:32.178Z,93625.50
2023-04-23T09:18:36.085Z,93634.13
2023-04-23T09:23:41.626Z,93635.41
2023-04-23T09:28:47.473Z,93622.22
2023-04-23T09:33:53.841Z,93621.19
2023-04-23T09:38:57.957Z,93625.34
2023-04-23T09:44:01.068Z,93626.00
2023-04-23T09:49:08.198Z,93626.66
2023-04-23T09:54:21.951Z,93631.84
2023-04-23T10:04:35.148Z,93629.88
2023-04-23T10:09:39.367Z,93636.81
2023-04-23T10:14:43.800Z,93620.69
2023-04-23T10:19:49.659Z,93615.91
2023-04-23T10:24:59.192Z,93620.03
2023-04-23T10:30:05.431Z,93614.94
2023-04-23T10:35:11.154Z,93614.78
2023-04-23T10:40:19.599Z,93602.16
2023-04-23T10:45:25.186Z,93617.81
2023-04-23T10:50:31.389Z,93621.25
2023-04-23T10:55:35.330Z,93627.53
2023-04-23T11:00:47.250Z,93616.19
2023-04-23T11:05:50.834Z,93607.88
2023-04-23T11:10:59.941Z,93613.38
2023-04-23T11:16:22.395Z,93620.44
2023-04-23T11:22:03.955Z,93613.84
2023-04-23T11:27:10.394Z,93621.75
2023-04-23T11:32:17.796Z,93620.41
2023-04-23T11:37:21.691Z,93622.41
2023-04-23T11:42:26.208Z,93617.59
2023-04-23T11:47:30.689Z,93615.50
2023-04-23T11:52:34.207Z,93612.50
2023-04-23T11:57:42.063Z,93603.06
2023-04-23T12:03:00.108Z,93601.00
2023-04-23T12:08:16.726Z,93613.56
2023-04-23T12:13:24.476Z,93605.66
2023-04-23T12:18:32.462Z,93601.19
2023-04-23T12:23:38.760Z,93597.19
2023-04-23T12:28:52.088Z,93599.09
2023-04-23T12:34:17.746Z,93599.34
2023-04-23T12:39:27.529Z,93595.53
2023-04-23T12:44:33.763Z,93601.88
2023-04-23T12:49:39.981Z,93599.84
2023-04-23T12:54:45.190Z,93594.56
2023-04-23T12:59:48.765Z,93580.56
2023-04-23T13:04:52.712Z,93587.59
2023-04-23T13:09:57.484Z,93587.56
2023-04-23T13:15:01.223Z,93574.81
2023-04-23T13:20:05.781Z,93577.44
2023-04-23T13:25:09.631Z,93578.34
2023-04-23T13:30:14.154Z,93568.56
2023-04-23T13:35:17.948Z,93579.44
2023-04-23T13:40:21.562Z,93566.53
2023-04-23T13:45:26.739Z,93564.56
2023-04-23T13:50:30.244Z,93558.97
2023-04-23T13:55:33.291Z,93553.53
2023-04-23T14:00:36.785Z,93569.19
2023-04-23T14:05:40.272Z,93564.91
2023-04-23T14:10:44.482Z,93547.22
2023-04-23T14:15:48.029Z,93558.47
2023-04-23T14:20:52.307Z,93558.06
2023-04-23T14:32:43.343Z,93501.38
2023-04-23T14:37:47.160Z,93537.63
2023-04-23T14:42:50.728Z,93548.41
2023-04-23T14:47:54.302Z,93517.91
2023-04-23T14:52:59.108Z,93534.06
2023-04-23T14:58:02.452Z,93521.28
2023-04-23T15:03:11.338Z,93552.16
2023-04-23T15:08:15.077Z,93551.13
2023-04-23T15:13:56.683Z,93512.84
2023-04-23T15:19:03.279Z,93503.25
2023-04-23T15:24:08.166Z,93520.91
2023-04-23T15:29:14.042Z,93471.44
2023-04-23T15:34:18.101Z,93475.94
2023-04-23T15:39:22.479Z,93487.00
2023-04-23T15:44:26.788Z,93542.53
2023-04-23T15:49:30.664Z,93482.25
2023-04-23T15:54:34.255Z,93549.09
2023-04-23T15:59:37.848Z,93469.44
2023-04-23T16:04:42.576Z,93526.03
2023-04-23T16:09:46.985Z,93493.78
2023-04-23T16:14:50.907Z,93525.75
2023-04-23T16:19:54.522Z,93486.75
2023-04-23T16:24:57.640Z,93551.94
2023-04-23T16:30:01.856Z,93518.56
2023-04-23T16:35:05.981Z,93539.53
2023-04-23T16:40:10.632Z,93526.09
2023-04-23T16:45:15.173Z,93493.16
2023-04-23T16:50:18.978Z,93539.88
2023-04-23T16:55:22.314Z,93478.25
2023-04-23T17:00:25.986Z,93492.00
2023-04-23T17:05:33.232Z,93528.56
2023-04-23T17:10:37.132Z,93567.66
2023-04-23T17:15:41.153Z,93517.06
2023-04-23T17:20:45.122Z,93512.16
2023-04-23T17:25:48.589Z,93567.94
2023-04-23T17:30:54.084Z,93504.63
2023-04-23T17:35:58.095Z,93542.22
2023-04-23T17:41:01.420Z,93585.81
2023-04-23T17:46:05.432Z,93475.91
2023-04-23T17:51:10.435Z,93579.47
2023-04-23T17:56:16.147Z,93518.22
2023-04-23T18:01:19.841Z,93506.59
2023-04-23T18:06:23.496Z,93497.66
2023-04-23T18:11:27.042Z,93540.34
2023-04-23T18:16:30.490Z,93525.50
2023-04-23T18:21:34.393Z,93502.91
2023-04-23T18:26:37.552Z,93535.72
2023-04-23T18:31:41.767Z,93502.94
2023-04-23T18:36:49.203Z,93564.75
2023-04-23T18:41:53.152Z,93568.28
2023-04-23T18:46:56.981Z,93521.75
2023-04-23T18:52:00.872Z,93598.06
2023-04-23T18:57:04.455Z,93623.50
2023-04-23T19:02:09.098Z,93553.78
2023-04-23T19:07:12.878Z,93569.41
2023-04-23T19:12:17.435Z,93569.31
2023-04-23T19:17:22.238Z,93587.94
2023-04-23T19:22:26.066Z,93574.72
2023-04-23T19:27:29.739Z,93617.75
2023-04-23T19:32:36.780Z,93552.03
2023-04-23T19:37:40.632Z,93649.84
2023-04-23T19:42:44.567Z,93644.78
2023-04-23T19:47:48.539Z,93604.50
2023-04-23T19:52:52.878Z,93659.00
2023-04-23T19:57:57.427Z,93538.91
2023-04-23T20:03:01.145Z,93590.56
2023-04-23T20:08:11.521Z,93599.97
2023-04-23T20:13:15.648Z,93584.75
2023-04-23T20:18:19.408Z,93624.28
2023-04-23T20:23:23.703Z,93527.25
2023-04-23T20:28:28.273Z,93578.13
2023-04-23T20:33:33.092Z,93655.22
2023-04-23T20:38:38.316Z,93594.16
2023-04-23T20:43:43.676Z,93625.09
2023-04-23T20:48:50.415Z,93614.13
2023-04-23T20:53:54.611Z,93626.63
2023-04-23T20:58:58.586Z,93610.13
2023-04-23T21:04:02.103Z,93619.53
2023-04-23T21:09:06.085Z,93541.91
2023-04-23T21:14:10.339Z,93588.47
2023-04-23T21:19:13.827Z,93577.13
2023-04-23T21:24:18.061Z,93606.19
2023-04-23T21:29:21.621Z,93546.59
2023-04-23T21:34:25.638Z,93578.03
2023-04-23T21:39:29.153Z,93518.53
2023-04-23T21:44:33.235Z,93604.66
2023-04-23T21:49:37.279Z,93585.41
2023-04-23T21:54:40.341Z,93585.38
2023-04-23T21:59:44.073Z,93541.03
2023-04-23T22:04:48.487Z,93606.09
2023-04-23T22:09:51.689Z,93572.00
2023-04-23T22:14:55.830Z,93553.88
2023-04-23T22:19:59.849Z,93534.19
2023-04-23T22:25:06.739Z,93555.34
2023-04-23T22:30:11.776Z,93606.28
2023-04-23T22:35:15.033Z,93539.47
2023-04-23T22:40:19.272Z,93594.34
2023-04-23T22:45:22.569Z,93593.53
2023-04-23T22:50:27.176Z,93561.38
2023-04-23T22:55:30.617Z,93524.47
2023-04-23T23:00:34.503Z,93492.84
2023-04-23T23:05:37.777Z,93509.00
2023-04-23T23:10:42.239Z,93507.88
2023-04-23T23:15:45.745Z,93463.72
2023-04-23T23:20:49.351Z,93479.09
2023-04-23T23:25:53.393Z,93522.94
2023-04-23T23:30:58.059Z,93516.66
2023-04-23T23:36:01.999Z,93468.53
2023-04-23T23:41:06.137Z,93526.34
2023-04-23T23:46:10.954Z,93458.31
2023-04-23T23:51:14.492Z,93496.59
2023-04-23T23:56:18.132Z,93478.16
